Terminal Aerodrome Forecast
Issued by NWS Riverton, WY

Home | Current Version | Previous Version | Text Only | Print | Product List | Glossary On
Versions: 1 2 3 4 5 6 7 8 9 10 11 12 13 14 15
000
FTUS45 KRIW 232339
TAFRIW
TAF
KRIW 232339Z 2400/2424 36012G22KT P6SM -RA SCT018 OVC035
      TEMPO 2400/2403 BKN018
     FM240300 36014KT P6SM VCSH SCT020 OVC040
     FM240400 34009KT P6SM OVC050
     FM241100 33006KT P6SM VCFG SCT060
     FM241600 23006KT P6SM FEW070 SCT200=

USA.gov is the U.S. government's official web portal to all federal, state and local government web resources and services.